createdAt,value
2023-04-19T00:00:52.971Z,6.30
2023-04-19T00:01:53.326Z,6.28
2023-04-19T00:02:53.801Z,6.28
2023-04-19T00:03:54.176Z,6.28
2023-04-19T00:04:54.450Z,6.31
2023-04-19T00:05:54.666Z,6.30
2023-04-19T00:06:55.019Z,6.26
2023-04-19T00:07:55.353Z,6.24
2023-04-19T00:08:55.717Z,6.28
2023-04-19T00:09:56.100Z,6.28
2023-04-19T00:10:56.465Z,6.30
2023-04-19T00:11:56.788Z,6.28
2023-04-19T00:12:57.122Z,6.27
2023-04-19T00:13:57.475Z,6.28
2023-04-19T00:14:57.840Z,6.26
2023-04-19T00:15:58.193Z,6.33
2023-04-19T00:16:58.632Z,6.33
2023-04-19T00:17:58.914Z,6.41
2023-04-19T00:18:59.238Z,6.41
2023-04-19T00:19:59.626Z,6.39
2023-04-19T00:20:59.917Z,6.45
2023-04-19T00:22:00.260Z,6.48
2023-04-19T00:23:00.600Z,6.52
2023-04-19T00:24:00.946Z,6.52
2023-04-19T00:25:01.321Z,6.52
2023-04-19T00:26:01.661Z,6.51
2023-04-19T00:27:02.054Z,6.49
2023-04-19T00:28:02.364Z,6.45
2023-04-19T00:29:02.708Z,6.45
2023-04-19T00:30:03.068Z,6.44
2023-04-19T00:31:03.478Z,6.38
2023-04-19T00:32:03.777Z,6.38
2023-04-19T00:33:04.175Z,6.36
2023-04-19T00:34:04.459Z,6.38
2023-04-19T00:35:04.830Z,6.33
2023-04-19T00:36:05.166Z,6.31
2023-04-19T00:37:05.544Z,6.27
2023-04-19T00:38:05.866Z,6.22
2023-04-19T00:39:06.233Z,6.17
2023-04-19T00:40:06.579Z,6.16
2023-04-19T00:41:06.921Z,6.14
2023-04-19T00:42:07.270Z,6.11
2023-04-19T00:43:07.624Z,6.14
2023-04-19T00:44:07.948Z,6.12
2023-04-19T00:45:08.301Z,6.12
2023-04-19T00:46:08.697Z,6.09
2023-04-19T00:47:09.012Z,6.16
2023-04-19T00:48:09.409Z,6.16
2023-04-19T00:49:09.711Z,6.16
2023-04-19T00:50:10.112Z,6.11
2023-04-19T00:51:10.449Z,6.08
2023-04-19T00:52:10.787Z,6.05
2023-04-19T00:53:11.118Z,6.04
2023-04-19T00:54:11.459Z,5.99
2023-04-19T00:55:11.835Z,5.94
2023-04-19T00:56:12.149Z,5.93
2023-04-19T00:57:12.475Z,5.91
2023-04-19T00:58:12.831Z,5.93
2023-04-19T00:59:13.184Z,5.93
2023-04-19T01:00:13.529Z,5.89
2023-04-19T01:01:13.970Z,5.84
2023-04-19T01:02:14.277Z,5.82
2023-04-19T01:03:14.749Z,5.83
2023-04-19T01:04:15.242Z,5.84
2023-04-19T01:05:15.352Z,5.93
2023-04-19T01:06:15.620Z,5.90
2023-04-19T01:07:15.954Z,5.87
2023-04-19T01:08:16.299Z,5.97
2023-04-19T01:09:16.637Z,5.94
2023-04-19T01:10:17.124Z,5.91
2023-04-19T01:11:17.347Z,5.90
2023-04-19T01:12:17.714Z,5.90
2023-04-19T01:13:18.034Z,5.89
2023-04-19T01:14:18.365Z,5.99
2023-04-19T01:15:18.761Z,5.94
2023-04-19T01:16:19.133Z,5.97
2023-04-19T01:17:19.560Z,5.93
2023-04-19T01:18:19.794Z,5.90
2023-04-19T01:19:20.132Z,5.84
2023-04-19T01:20:20.522Z,5.82
2023-04-19T01:21:20.854Z,5.79
2023-04-19T01:22:21.154Z,5.83
2023-04-19T01:23:21.490Z,5.79
2023-04-19T01:24:21.830Z,5.75
2023-04-19T01:25:22.188Z,5.71
2023-04-19T01:26:22.530Z,5.69
2023-04-19T01:27:22.875Z,5.66
2023-04-19T01:28:23.243Z,5.68
2023-04-19T01:29:23.590Z,5.64
2023-04-19T01:30:23.972Z,5.64
2023-04-19T01:31:24.318Z,5.62
2023-04-19T01:32:24.602Z,5.62
2023-04-19T01:33:24.932Z,5.62
2023-04-19T01:34:25.283Z,5.62
2023-04-19T01:35:25.628Z,5.62
2023-04-19T01:36:25.985Z,5.62
2023-04-19T01:37:26.318Z,5.61
2023-04-19T01:38:26.649Z,5.57
2023-04-19T01:39:27.007Z,5.56
2023-04-19T01:40:27.374Z,5.56
2023-04-19T01:41:27.694Z,5.57
2023-04-19T01:42:28.146Z,5.59
2023-04-19T01:43:28.400Z,5.56
2023-04-19T01:44:28.743Z,5.53
2023-04-19T01:45:29.098Z,5.51
2023-04-19T01:46:29.464Z,5.48
2023-04-19T01:47:29.814Z,5.46
2023-04-19T01:48:30.128Z,5.44
2023-04-19T01:49:30.497Z,5.43
2023-04-19T01:50:30.860Z,5.41
2023-04-19T01:51:31.192Z,5.44
2023-04-19T01:52:31.541Z,5.44
2023-04-19T01:53:31.877Z,5.39
2023-04-19T01:54:32.222Z,5.36
2023-04-19T01:55:32.594Z,5.36
2023-04-19T01:56:32.935Z,5.47
2023-04-19T01:57:33.278Z,5.46
2023-04-19T01:58:33.673Z,5.46
2023-04-19T01:59:33.974Z,5.46
2023-04-19T02:00:34.358Z,5.43
2023-04-19T02:01:34.640Z,5.47
2023-04-19T02:02:35.198Z,5.50
2023-04-19T02:03:35.644Z,5.43
2023-04-19T02:04:35.687Z,5.38
2023-04-19T02:05:36.055Z,5.33
2023-04-19T02:06:36.396Z,5.30
2023-04-19T02:07:36.740Z,5.29
2023-04-19T02:08:37.100Z,5.21
2023-04-19T02:09:37.439Z,5.15
2023-04-19T02:10:37.808Z,5.11
2023-04-19T02:11:38.144Z,5.08
2023-04-19T02:12:38.482Z,5.04
2023-04-19T02:13:38.831Z,4.97
2023-04-19T02:14:39.167Z,4.94
2023-04-19T02:15:39.506Z,4.92
2023-04-19T02:16:39.899Z,4.90
2023-04-19T02:17:40.244Z,4.89
2023-04-19T02:18:40.564Z,4.86
2023-04-19T02:19:40.904Z,4.80
2023-04-19T02:20:41.293Z,4.82
2023-04-19T02:21:41.644Z,4.78
2023-04-19T02:22:42.005Z,4.73
2023-04-19T02:23:42.324Z,4.70
2023-04-19T02:24:42.689Z,4.66
2023-04-19T02:25:43.085Z,4.62
2023-04-19T02:26:43.385Z,4.59
2023-04-19T02:27:43.739Z,4.55
2023-04-19T02:28:44.078Z,4.49
2023-04-19T02:29:44.435Z,4.42
2023-04-19T02:30:44.804Z,4.38
2023-04-19T02:31:45.205Z,4.32
2023-04-19T02:32:45.517Z,4.23
2023-04-19T02:33:45.871Z,4.12
2023-04-19T02:34:46.189Z,4.02
2023-04-19T02:35:46.545Z,3.95
2023-04-19T02:36:46.875Z,3.86
2023-04-19T02:37:47.231Z,3.81
2023-04-19T02:38:47.550Z,3.78
2023-04-19T02:39:47.892Z,3.74
2023-04-19T02:40:48.250Z,3.70
2023-04-19T02:41:48.615Z,3.74
2023-04-19T02:42:48.986Z,3.69
2023-04-19T02:43:49.334Z,3.69
2023-04-19T02:44:49.671Z,3.70
2023-04-19T02:45:50.051Z,3.68
2023-04-19T02:46:50.365Z,3.68
2023-04-19T02:47:50.728Z,3.74
2023-04-19T02:48:51.046Z,3.70
2023-04-19T02:49:51.388Z,3.70
2023-04-19T02:50:51.746Z,3.78
2023-04-19T02:51:52.078Z,3.81
2023-04-19T02:52:52.412Z,3.91
2023-04-19T02:53:52.755Z,3.94
2023-04-19T02:54:59.112Z,4.22
2023-04-19T02:55:53.490Z,4.30
2023-04-19T02:56:53.854Z,4.59
2023-04-19T02:57:54.176Z,4.68
2023-04-19T02:58:54.514Z,4.66
2023-04-19T02:59:54.870Z,4.63
2023-04-19T03:00:55.240Z,4.59
2023-04-19T03:01:55.709Z,4.52
2023-04-19T03:02:56.025Z,4.44
2023-04-19T03:03:56.369Z,4.30
2023-04-19T03:04:56.629Z,4.20
2023-04-19T03:05:56.993Z,4.14
2023-04-19T03:06:57.327Z,4.06
2023-04-19T03:07:57.674Z,3.96
2023-04-19T03:08:58.024Z,3.83
2023-04-19T03:09:58.361Z,3.73
2023-04-19T03:10:58.751Z,3.63
2023-04-19T03:11:59.076Z,3.60
2023-04-19T03:12:59.417Z,3.60
2023-04-19T03:13:59.765Z,3.56
2023-04-19T03:15:00.139Z,3.53
2023-04-19T03:16:00.519Z,3.51
2023-04-19T03:17:00.808Z,3.47
2023-04-19T03:18:01.173Z,3.41
2023-04-19T03:19:01.494Z,3.36
2023-04-19T03:20:01.926Z,3.32
2023-04-19T03:21:02.227Z,3.29
2023-04-19T03:22:02.561Z,3.32
2023-04-19T03:23:02.913Z,3.32
2023-04-19T03:24:03.250Z,3.37
2023-04-19T03:25:03.589Z,3.36
2023-04-19T03:26:03.984Z,3.37
2023-04-19T03:27:04.285Z,3.37
2023-04-19T03:28:04.631Z,3.37
2023-04-19T03:29:04.972Z,3.36
2023-04-19T03:30:05.325Z,3.26
2023-04-19T03:31:05.779Z,3.21
2023-04-19T03:32:06.051Z,3.19
2023-04-19T03:33:06.448Z,3.13
2023-04-19T03:34:06.741Z,3.03
2023-04-19T03:35:07.043Z,2.95
2023-04-19T03:36:07.286Z,2.86
2023-04-19T03:37:07.570Z,2.86
2023-04-19T03:38:07.860Z,2.75
2023-04-19T03:39:08.155Z,2.68
2023-04-19T03:40:08.447Z,2.67
2023-04-19T03:41:08.736Z,2.62
2023-04-19T03:42:09.011Z,2.67
2023-04-19T03:43:09.267Z,2.65
2023-04-19T03:44:10.190Z,2.67
2023-04-19T03:45:09.851Z,2.64
2023-04-19T03:46:10.156Z,2.64
2023-04-19T03:47:10.428Z,2.64
2023-04-19T03:48:10.752Z,2.69
2023-04-19T03:49:11.006Z,2.68
2023-04-19T03:50:11.275Z,2.65
2023-04-19T03:51:11.580Z,2.64
2023-04-19T03:52:11.844Z,2.62
2023-04-19T03:53:12.009Z,2.61
2023-04-19T03:54:12.176Z,2.57
2023-04-19T03:55:12.542Z,2.56
2023-04-19T03:56:12.763Z,2.54
2023-04-19T03:57:13.021Z,2.56
2023-04-19T03:58:13.197Z,2.65
2023-04-19T03:59:13.488Z,2.67
2023-04-19T04:00:13.787Z,2.65
2023-04-19T04:01:14.107Z,2.67
2023-04-19T04:02:14.508Z,2.65
2023-04-19T04:03:14.825Z,2.61
2023-04-19T04:04:15.387Z,2.53
2023-04-19T04:05:15.311Z,2.49
2023-04-19T04:06:15.543Z,2.50
2023-04-19T04:07:15.815Z,2.47
2023-04-19T04:08:16.044Z,2.44
2023-04-19T04:09:16.268Z,2.49
2023-04-19T04:10:16.437Z,2.50
2023-04-19T04:11:16.637Z,2.56
2023-04-19T04:12:16.901Z,2.61
2023-04-19T04:13:17.085Z,2.64
2023-04-19T04:14:17.360Z,2.69
2023-04-19T04:15:17.570Z,2.69
2023-04-19T04:16:17.909Z,2.71
2023-04-19T04:17:18.008Z,2.72
2023-04-19T04:18:18.172Z,2.72
2023-04-19T04:19:18.342Z,2.69
2023-04-19T04:20:18.511Z,2.67
2023-04-19T04:21:18.700Z,2.74
2023-04-19T04:22:18.979Z,2.79
2023-04-19T04:23:19.151Z,2.79
2023-04-19T04:24:19.306Z,2.75
2023-04-19T04:25:21.199Z,2.71
2023-04-19T04:26:19.704Z,2.71
2023-04-19T04:27:19.838Z,2.71
2023-04-19T04:28:20.007Z,2.69
2023-04-19T04:29:20.180Z,2.71
2023-04-19T04:30:20.361Z,2.69
2023-04-19T04:31:20.603Z,2.75
2023-04-19T04:32:20.761Z,2.74
2023-04-19T04:33:20.883Z,2.80
2023-04-19T04:34:21.194Z,2.90
2023-04-19T04:35:21.349Z,2.98
2023-04-19T04:36:21.542Z,3.05
2023-04-19T04:37:21.709Z,3.13
2023-04-19T04:38:25.006Z,3.16
2023-04-19T04:39:22.152Z,3.23
2023-04-19T04:40:22.333Z,3.29
2023-04-19T04:41:22.927Z,3.29
2023-04-19T04:42:22.671Z,3.34
2023-04-19T04:43:22.873Z,3.40
2023-04-19T04:44:23.164Z,3.42
2023-04-19T04:45:23.206Z,3.42
2023-04-19T04:46:23.431Z,3.48
2023-04-19T04:47:23.609Z,3.53
2023-04-19T04:48:23.727Z,3.56
2023-04-19T04:49:23.882Z,3.59
2023-04-19T04:50:24.063Z,3.62
2023-04-19T04:51:24.268Z,3.63
2023-04-19T04:52:24.419Z,3.74
2023-04-19T04:53:24.602Z,3.80
2023-04-19T04:54:24.779Z,3.87
2023-04-19T04:55:24.994Z,4.01
2023-04-19T04:56:25.184Z,4.08
2023-04-19T04:57:25.336Z,4.10
2023-04-19T04:58:25.634Z,4.16
2023-04-19T04:59:25.830Z,4.26
2023-04-19T05:00:26.038Z,4.32
2023-04-19T05:01:26.237Z,4.26
2023-04-19T05:02:26.588Z,4.40
2023-04-19T05:03:26.672Z,4.41
2023-04-19T05:04:26.988Z,4.48
2023-04-19T05:05:27.270Z,4.48
2023-04-19T05:06:27.582Z,4.60
2023-04-19T05:07:27.776Z,4.66
2023-04-19T05:08:27.946Z,4.68
2023-04-19T05:09:28.106Z,4.82
2023-04-19T05:10:28.412Z,4.97
2023-04-19T05:11:28.722Z,4.97
2023-04-19T05:12:28.892Z,5.04
2023-04-19T05:13:29.065Z,5.23
2023-04-19T05:14:29.235Z,5.44
2023-04-19T05:15:29.539Z,5.47
2023-04-19T05:16:29.918Z,5.46
2023-04-19T05:17:30.160Z,5.57
2023-04-19T05:18:30.327Z,5.69
2023-04-19T05:19:30.615Z,5.79
2023-04-19T05:20:30.906Z,5.87
2023-04-19T05:21:31.237Z,5.79
2023-04-19T05:22:31.504Z,5.89
2023-04-19T05:23:31.816Z,5.98
2023-04-19T05:24:32.105Z,5.93
2023-04-19T05:25:32.291Z,6.05
2023-04-19T05:26:32.526Z,6.24
2023-04-19T05:27:32.749Z,6.36
2023-04-19T05:28:33.063Z,6.36
2023-04-19T05:29:33.231Z,6.41
2023-04-19T05:30:33.517Z,6.31
2023-04-19T05:31:33.875Z,6.31
2023-04-19T05:32:34.130Z,6.24
2023-04-19T05:33:34.187Z,6.28
2023-04-19T05:34:34.396Z,6.45
2023-04-19T05:35:34.684Z,6.41
2023-04-19T05:36:34.866Z,6.38
2023-04-19T05:37:35.034Z,6.42
2023-04-19T05:38:35.217Z,6.57
2023-04-19T05:39:35.430Z,6.46
2023-04-19T05:40:35.713Z,6.56
2023-04-19T05:41:35.972Z,6.63
2023-04-19T05:42:36.196Z,6.59
2023-04-19T05:43:36.503Z,6.60
2023-04-19T05:44:36.797Z,6.70
2023-04-19T05:45:37.098Z,6.82
2023-04-19T05:46:37.434Z,6.85
2023-04-19T05:47:37.609Z,6.93
2023-04-19T05:48:37.877Z,6.93
2023-04-19T05:49:38.182Z,6.96
2023-04-19T05:50:38.512Z,6.92
2023-04-19T05:51:38.676Z,6.97
2023-04-19T05:52:38.847Z,7.05
2023-04-19T05:53:39.150Z,7.11
2023-04-19T05:54:39.320Z,7.11
2023-04-19T05:55:39.630Z,7.21
2023-04-19T05:56:39.934Z,7.33
2023-04-19T05:57:40.126Z,7.42
2023-04-19T05:58:40.286Z,7.25
2023-04-19T05:59:40.630Z,7.13
2023-04-19T06:00:40.880Z,7.18
2023-04-19T06:01:41.275Z,7.20
2023-04-19T06:02:41.482Z,7.25
2023-04-19T06:03:41.981Z,7.29
2023-04-19T06:04:42.126Z,7.23
2023-04-19T06:05:42.149Z,7.21
2023-04-19T06:06:42.342Z,7.24
2023-04-19T06:07:47.369Z,7.20
2023-04-19T06:08:42.723Z,7.10
2023-04-19T06:09:43.038Z,7.06
2023-04-19T06:11:50.868Z,7.06
2023-04-19T06:12:43.671Z,7.06
2023-04-19T06:13:43.958Z,7.07
2023-04-19T06:14:44.152Z,7.18
2023-04-19T06:15:44.459Z,7.24
2023-04-19T06:16:44.660Z,7.25
2023-04-19T06:17:44.878Z,7.31
2023-04-19T06:18:45.106Z,7.33
2023-04-19T06:19:45.310Z,7.39
2023-04-19T06:20:45.617Z,7.45
2023-04-19T06:21:45.808Z,7.53
2023-04-19T06:22:46.008Z,7.56
2023-04-19T06:23:46.270Z,7.53
2023-04-19T06:24:46.578Z,7.53
2023-04-19T06:25:46.762Z,7.45
2023-04-19T06:26:47.076Z,7.50
2023-04-19T06:27:47.260Z,7.47
2023-04-19T06:28:47.413Z,7.54
2023-04-19T06:29:49.806Z,7.57
2023-04-19T06:30:48.062Z,7.54
2023-04-19T06:31:48.263Z,7.61
2023-04-19T06:32:48.389Z,7.70
2023-04-19T06:33:48.560Z,7.70
2023-04-19T06:34:48.861Z,7.72
2023-04-19T06:35:49.027Z,7.72
2023-04-19T06:36:49.352Z,7.73
2023-04-19T06:37:50.892Z,7.77
2023-04-19T06:38:49.698Z,7.90
2023-04-19T06:39:49.998Z,7.90
2023-04-19T06:40:50.165Z,7.91
2023-04-19T06:41:50.364Z,7.97
2023-04-19T06:42:50.544Z,7.97
2023-04-19T06:43:50.702Z,7.98
2023-04-19T06:44:51.152Z,8.08
2023-04-19T06:45:51.124Z,8.12
2023-04-19T06:46:51.272Z,8.09
2023-04-19T06:47:51.563Z,8.16
2023-04-19T06:48:51.621Z,8.19
2023-04-19T06:49:51.919Z,8.18
2023-04-19T06:50:52.212Z,8.09
2023-04-19T06:51:52.543Z,8.16
2023-04-19T06:52:52.683Z,8.18
2023-04-19T06:53:52.906Z,8.24
2023-04-19T06:54:53.187Z,8.31
2023-04-19T06:55:53.481Z,8.41
2023-04-19T06:56:53.682Z,8.41
2023-04-19T06:57:53.961Z,8.48
2023-04-19T06:58:54.241Z,8.48
2023-04-19T06:59:54.428Z,8.45
2023-04-19T07:00:54.720Z,8.49
2023-04-19T07:01:55.102Z,8.51
2023-04-19T07:02:55.337Z,8.60
2023-04-19T07:03:57.371Z,8.51
2023-04-19T07:04:55.784Z,8.56
2023-04-19T07:05:55.886Z,8.69
2023-04-19T07:06:56.205Z,8.73
2023-04-19T07:07:56.358Z,8.79
2023-04-19T07:08:56.654Z,8.87
2023-04-19T07:09:56.954Z,8.74
2023-04-19T07:10:57.259Z,8.79
2023-04-19T07:11:57.454Z,8.88
2023-04-19T07:12:57.614Z,8.99
2023-04-19T07:13:57.929Z,8.97
2023-04-19T07:14:58.084Z,8.89
2023-04-19T07:15:58.503Z,8.85
2023-04-19T07:16:58.565Z,8.89
2023-04-19T07:17:58.852Z,9.11
2023-04-19T07:18:58.930Z,9.10
2023-04-19T07:19:59.090Z,9.04
2023-04-19T07:20:59.394Z,9.18
2023-04-19T07:21:59.854Z,9.19
2023-04-19T07:22:59.870Z,9.22
2023-04-19T07:24:00.190Z,9.31
2023-04-19T07:25:00.493Z,9.32
2023-04-19T07:26:00.764Z,9.32
2023-04-19T07:27:01.113Z,9.47
2023-04-19T07:28:01.240Z,9.61
2023-04-19T07:29:01.561Z,9.62
2023-04-19T07:30:01.760Z,9.64
2023-04-19T07:31:01.898Z,9.64
2023-04-19T07:32:02.250Z,9.64
2023-04-19T07:33:02.428Z,9.69
2023-04-19T07:34:02.559Z,9.66
2023-04-19T07:35:02.867Z,9.76
2023-04-19T07:36:03.037Z,9.83
2023-04-19T07:37:03.243Z,9.91
2023-04-19T07:38:03.524Z,9.77
2023-04-19T07:39:03.825Z,9.80
2023-04-19T07:40:04.123Z,9.79
2023-04-19T07:41:04.320Z,9.80
2023-04-19T07:42:04.497Z,9.92
2023-04-19T07:43:04.760Z,9.82
2023-04-19T07:44:05.076Z,9.95
2023-04-19T07:45:05.256Z,9.87
2023-04-19T07:46:05.553Z,9.98
2023-04-19T07:47:05.716Z,10.12
2023-04-19T07:48:05.953Z,10.12
2023-04-19T07:49:06.080Z,10.23
2023-04-19T07:50:06.335Z,10.26
2023-04-19T07:51:06.488Z,10.34
2023-04-19T07:52:06.645Z,10.49
2023-04-19T07:53:06.828Z,10.33
2023-04-19T07:54:07.036Z,10.44
2023-04-19T07:55:07.374Z,10.56
2023-04-19T07:56:07.388Z,10.60
2023-04-19T07:57:07.606Z,10.63
2023-04-19T07:58:07.767Z,10.51
2023-04-19T07:59:09.321Z,10.54
2023-04-19T08:00:08.294Z,10.49
2023-04-19T08:01:08.383Z,10.68
2023-04-19T08:02:08.640Z,10.76
2023-04-19T08:03:08.879Z,10.97
2023-04-19T08:04:09.221Z,10.69
2023-04-19T08:05:09.159Z,10.78
2023-04-19T08:06:09.218Z,10.86
2023-04-19T08:07:09.416Z,10.93
2023-04-19T08:08:09.565Z,10.84
2023-04-19T08:09:09.879Z,10.79
2023-04-19T08:10:09.940Z,10.93
2023-04-19T08:11:10.141Z,10.96
2023-04-19T08:12:14.834Z,10.86
2023-04-19T08:13:10.510Z,11.00
2023-04-19T08:14:22.302Z,11.10
2023-04-19T08:15:32.904Z,10.96
2023-04-19T08:17:24.609Z,11.12
2023-04-19T08:18:11.486Z,11.19
2023-04-19T08:19:11.599Z,11.23
2023-04-19T08:20:11.776Z,11.32
2023-04-19T08:21:11.993Z,11.40
2023-04-19T08:22:12.184Z,11.57
2023-04-19T08:23:21.293Z,11.59
2023-04-19T08:24:12.502Z,11.48
2023-04-19T08:25:12.685Z,11.43
2023-04-19T08:26:12.874Z,11.41
2023-04-19T08:27:13.107Z,11.37
2023-04-19T08:28:13.233Z,11.50
2023-04-19T08:29:13.437Z,11.68
2023-04-19T08:30:13.596Z,11.91
2023-04-19T08:31:13.783Z,11.75
2023-04-19T08:32:14.063Z,11.69
2023-04-19T08:33:14.197Z,11.77
2023-04-19T08:34:14.363Z,11.81
2023-04-19T08:35:14.548Z,11.90
2023-04-19T08:36:17.138Z,11.72
2023-04-19T08:37:14.918Z,11.73
2023-04-19T08:38:15.068Z,11.65
2023-04-19T08:39:29.063Z,11.65
2023-04-19T08:40:15.427Z,11.69
2023-04-19T08:41:15.607Z,11.43
2023-04-19T08:42:28.889Z,11.59
2023-04-19T08:43:15.994Z,11.80
2023-04-19T08:44:19.835Z,11.78
2023-04-19T08:45:27.835Z,11.88
2023-04-19T08:46:16.569Z,11.77
2023-04-19T08:47:23.608Z,11.66
2023-04-19T08:48:16.923Z,11.73
2023-04-19T08:49:17.466Z,11.84
2023-04-19T08:50:31.208Z,12.03
2023-04-19T08:51:17.452Z,11.69
2023-04-19T08:52:17.578Z,11.91
2023-04-19T08:53:24.902Z,12.12
2023-04-19T08:54:17.938Z,12.21
2023-04-19T08:55:18.142Z,12.17
2023-04-19T08:56:32.005Z,12.18
2023-04-19T08:57:18.509Z,12.25
2023-04-19T08:58:28.620Z,12.21
2023-04-19T08:59:19.697Z,12.36
2023-04-19T09:00:19.025Z,12.00
2023-04-19T09:01:30.950Z,12.21
2023-04-19T09:02:19.575Z,12.18
2023-04-19T09:03:19.662Z,12.18
2023-04-19T09:04:34.832Z,12.12
2023-04-19T09:05:20.223Z,12.02
2023-04-19T09:06:20.199Z,12.03
2023-04-19T09:07:20.382Z,12.21
2023-04-19T09:08:20.482Z,12.40
2023-04-19T09:10:20.855Z,12.46
2023-04-19T09:11:21.030Z,12.39
2023-04-19T09:12:21.244Z,12.42
2023-04-19T09:13:21.426Z,12.50
2023-04-19T09:14:21.614Z,12.55
2023-04-19T09:15:21.801Z,12.28
2023-04-19T09:16:22.181Z,12.31
2023-04-19T09:17:22.223Z,12.46
2023-04-19T09:18:22.524Z,12.60
2023-04-19T09:19:25.154Z,12.53
2023-04-19T09:20:22.716Z,12.65
2023-04-19T09:21:22.910Z,12.93
2023-04-19T09:22:23.120Z,12.95
2023-04-19T09:23:23.279Z,13.01
2023-04-19T09:24:23.896Z,13.20
2023-04-19T09:25:43.746Z,12.98
2023-04-19T09:26:23.950Z,12.83
2023-04-19T09:27:24.049Z,12.87
2023-04-19T09:28:24.182Z,12.79
2023-04-19T09:29:24.374Z,12.86
2023-04-19T09:30:32.463Z,12.87
2023-04-19T09:32:25.084Z,12.78
2023-04-19T09:33:25.173Z,12.45
2023-04-19T09:34:25.288Z,12.35
2023-04-19T09:35:25.470Z,12.40
2023-04-19T09:36:25.663Z,12.46
2023-04-19T09:37:39.036Z,12.68
2023-04-19T09:38:26.055Z,12.78
2023-04-19T09:39:26.271Z,12.94
2023-04-19T09:40:26.441Z,13.00
2023-04-19T09:41:26.618Z,13.25
2023-04-19T09:42:47.194Z,13.19
2023-04-19T09:43:55.894Z,13.15
2023-04-19T09:45:30.494Z,13.13
2023-04-19T09:46:27.600Z,13.18
2023-04-19T09:47:27.841Z,13.33
2023-04-19T09:48:27.996Z,13.19
2023-04-19T09:49:41.537Z,13.35
2023-04-19T09:50:28.848Z,13.75
2023-04-19T09:51:28.615Z,13.05
2023-04-19T09:52:28.815Z,12.94
2023-04-19T09:53:28.994Z,13.05
2023-04-19T09:54:29.214Z,12.87
2023-04-19T09:55:31.718Z,12.95
2023-04-19T09:56:29.641Z,13.08
2023-04-19T09:57:29.871Z,13.16
2023-04-19T09:58:38.285Z,13.00
2023-04-19T09:59:30.250Z,13.47
2023-04-19T10:00:36.033Z,13.41
2023-04-19T10:01:30.690Z,13.46
2023-04-19T10:02:30.979Z,12.79
2023-04-19T10:03:31.173Z,13.09
2023-04-19T10:04:44.130Z,13.25
2023-04-19T10:05:31.525Z,13.57
2023-04-19T10:06:45.700Z,13.09
2023-04-19T10:07:31.915Z,13.22
2023-04-19T10:08:32.061Z,13.15
2023-04-19T10:09:34.103Z,13.23
2023-04-19T10:10:41.950Z,13.22
2023-04-19T10:11:32.849Z,13.27
2023-04-19T10:12:54.848Z,13.68
2023-04-19T10:13:33.055Z,13.27
2023-04-19T10:14:33.295Z,13.16
2023-04-19T10:15:47.206Z,12.90
2023-04-19T10:16:33.704Z,13.23
2023-04-19T10:17:33.906Z,13.22
2023-04-19T10:18:34.044Z,13.12
2023-04-19T10:19:34.263Z,13.25
2023-04-19T10:20:34.472Z,13.53
2023-04-19T10:21:34.683Z,13.74
2023-04-19T10:22:34.905Z,13.53
2023-04-19T10:23:35.059Z,13.78
2023-04-19T10:24:35.268Z,13.52
2023-04-19T10:25:35.497Z,13.75
2023-04-19T10:26:35.702Z,13.87
2023-04-19T10:27:35.949Z,13.60
2023-04-19T10:28:36.104Z,13.78
2023-04-19T10:29:36.296Z,14.11
2023-04-19T10:30:36.505Z,14.20
2023-04-19T10:31:36.732Z,14.45
2023-04-19T10:32:36.989Z,14.14
2023-04-19T10:33:37.143Z,13.83
2023-04-19T10:34:37.360Z,13.96
2023-04-19T10:35:37.565Z,13.67
2023-04-19T10:36:37.765Z,13.33
2023-04-19T10:37:37.998Z,13.53
2023-04-19T10:38:38.193Z,13.31
2023-04-19T10:39:38.385Z,13.71
2023-04-19T10:40:38.601Z,13.81
2023-04-19T10:41:38.819Z,13.71
2023-04-19T10:42:39.059Z,13.71
2023-04-19T10:43:39.238Z,13.90
2023-04-19T10:44:39.429Z,13.22
2023-04-19T10:45:39.688Z,13.30
2023-04-19T10:46:40.083Z,13.60
2023-04-19T10:47:40.072Z,13.78
2023-04-19T10:48:40.244Z,13.46
2023-04-19T10:49:40.422Z,13.56
2023-04-19T10:50:40.648Z,13.93
2023-04-19T10:51:40.833Z,13.87
2023-04-19T10:52:41.067Z,14.08
2023-04-19T10:53:41.235Z,14.25
2023-04-19T10:54:41.452Z,13.75
2023-04-19T10:55:41.659Z,13.41
2023-04-19T10:56:41.873Z,13.19
2023-04-19T10:57:42.112Z,13.56
2023-04-19T10:58:42.305Z,13.50
2023-04-19T10:59:42.496Z,13.90
2023-04-19T11:00:42.716Z,13.79
2023-04-19T11:01:43.154Z,13.59
2023-04-19T11:02:43.272Z,13.62
2023-04-19T11:03:43.527Z,13.70
2023-04-19T11:04:43.592Z,13.70
2023-04-19T11:05:43.716Z,13.19
2023-04-19T11:06:43.933Z,12.94
2023-04-19T11:07:44.160Z,13.11
2023-04-19T11:08:44.348Z,13.23
2023-04-19T11:09:44.543Z,13.38
2023-04-19T11:10:44.760Z,13.22
2023-04-19T11:11:44.983Z,12.97
2023-04-19T11:12:45.166Z,13.31
2023-04-19T11:13:45.329Z,13.30
2023-04-19T11:14:45.538Z,13.35
2023-04-19T11:15:45.788Z,13.09
2023-04-19T11:16:46.518Z,13.13
2023-04-19T11:17:46.212Z,13.38
2023-04-19T11:18:46.368Z,13.19
2023-04-19T11:19:46.571Z,13.49
2023-04-19T11:20:46.786Z,13.49
2023-04-19T11:21:47.002Z,13.41
2023-04-19T11:22:47.218Z,13.49
2023-04-19T11:23:47.507Z,13.50
2023-04-19T11:24:47.629Z,13.46
2023-04-19T11:25:47.832Z,13.60
2023-04-19T11:26:48.033Z,13.39
2023-04-19T11:27:48.300Z,13.63
2023-04-19T11:28:48.454Z,13.81
2023-04-19T11:29:48.662Z,13.60
2023-04-19T11:30:48.879Z,13.60
2023-04-19T11:31:49.139Z,13.68
2023-04-19T11:32:49.356Z,13.85
2023-04-19T11:33:49.524Z,13.77
2023-04-19T11:34:49.736Z,13.86
2023-04-19T11:35:49.942Z,13.56
2023-04-19T11:36:50.163Z,13.30
2023-04-19T11:37:50.347Z,13.49
2023-04-19T11:38:50.523Z,13.33
2023-04-19T11:39:50.688Z,13.37
2023-04-19T11:40:50.862Z,13.54
2023-04-19T11:41:51.068Z,13.57
2023-04-19T11:42:51.315Z,13.56
2023-04-19T11:43:51.452Z,13.83
2023-04-19T11:44:51.678Z,14.03
2023-04-19T11:45:51.885Z,14.17
2023-04-19T11:46:52.114Z,13.79
2023-04-19T11:47:52.349Z,13.35
2023-04-19T11:48:52.550Z,13.53
2023-04-19T11:49:52.686Z,13.90
2023-04-19T11:50:52.853Z,13.47
2023-04-19T11:51:53.092Z,13.53
2023-04-19T11:52:53.285Z,13.99
2023-04-19T11:53:53.474Z,14.08
2023-04-19T11:54:53.669Z,13.86
2023-04-19T11:55:54.010Z,13.44
2023-04-19T11:56:54.064Z,13.47
2023-04-19T11:57:54.290Z,13.44
2023-04-19T11:58:54.510Z,13.37
2023-04-19T11:59:54.686Z,13.11
2023-04-19T12:00:54.909Z,13.16
2023-04-19T12:01:55.158Z,13.13
2023-04-19T12:02:55.595Z,13.38
2023-04-19T12:03:55.889Z,13.39
2023-04-19T12:04:55.900Z,13.53
2023-04-19T12:05:56.203Z,13.42
2023-04-19T12:06:56.108Z,13.56
2023-04-19T12:07:56.290Z,13.54
2023-04-19T12:08:56.467Z,13.41
2023-04-19T12:09:56.662Z,13.31
2023-04-19T12:10:56.867Z,13.30
2023-04-19T12:11:57.104Z,13.23
2023-04-19T12:12:57.316Z,13.46
2023-04-19T12:13:57.480Z,13.16
2023-04-19T12:14:57.680Z,12.98
2023-04-19T12:15:57.894Z,13.11
2023-04-19T12:16:58.202Z,13.37
2023-04-19T12:17:58.386Z,13.62
2023-04-19T12:18:58.525Z,13.59
2023-04-19T12:19:58.732Z,13.25
2023-04-19T12:21:01.234Z,13.41
2023-04-19T12:21:59.146Z,13.23
2023-04-19T12:22:59.369Z,13.30
2023-04-19T12:23:59.566Z,13.38
2023-04-19T12:24:59.758Z,13.11
2023-04-19T12:25:59.974Z,13.35
2023-04-19T12:27:00.169Z,13.13
2023-04-19T12:28:00.364Z,13.41
2023-04-19T12:29:00.540Z,13.59
2023-04-19T12:30:00.756Z,13.03
2023-04-19T12:31:01.016Z,13.09
2023-04-19T12:32:01.169Z,13.12
2023-04-19T12:33:01.395Z,13.44
2023-04-19T12:34:01.540Z,13.72
2023-04-19T12:35:01.810Z,13.42
2023-04-19T12:36:01.955Z,13.25
2023-04-19T12:37:02.167Z,13.01
2023-04-19T12:38:02.373Z,13.15
2023-04-19T12:39:02.584Z,13.56
2023-04-19T12:40:02.854Z,13.63
2023-04-19T12:41:03.015Z,13.31
2023-04-19T12:42:03.209Z,13.62
2023-04-19T12:43:03.438Z,13.89
2023-04-19T12:44:03.633Z,13.59
2023-04-19T12:45:03.830Z,13.39
2023-04-19T12:46:04.105Z,13.27
2023-04-19T12:47:04.233Z,13.30
2023-04-19T12:48:04.468Z,12.98
2023-04-19T12:49:04.650Z,13.27
2023-04-19T12:50:04.886Z,13.05
2023-04-19T12:51:05.073Z,13.04
2023-04-19T12:52:05.293Z,13.22
2023-04-19T12:53:05.495Z,13.59
2023-04-19T12:54:05.712Z,13.67
2023-04-19T12:55:05.953Z,13.46
2023-04-19T12:56:06.144Z,13.30
2023-04-19T12:57:06.337Z,13.11
2023-04-19T12:58:06.545Z,12.98
2023-04-19T12:59:06.765Z,13.18
2023-04-19T13:00:07.026Z,13.09
2023-04-19T13:01:07.227Z,13.13
2023-04-19T13:02:07.448Z,13.20
2023-04-19T13:03:07.610Z,13.35
2023-04-19T13:04:07.913Z,13.18
2023-04-19T13:05:07.998Z,13.15
2023-04-19T13:06:08.096Z,13.03
2023-04-19T13:07:08.301Z,13.35
2023-04-19T13:08:08.524Z,13.60
2023-04-19T13:10:08.968Z,13.23
2023-04-19T13:11:09.105Z,13.04
2023-04-19T13:12:09.309Z,13.13
2023-04-19T13:13:09.527Z,13.50
2023-04-19T13:14:09.747Z,13.38
2023-04-19T13:15:10.108Z,13.18
2023-04-19T13:16:10.177Z,13.18
2023-04-19T13:17:10.333Z,13.28